createdAt,value
2022-11-29T00:01:07.069Z,21.75
2022-11-29T00:03:35.752Z,24.70
2022-11-29T00:06:07.697Z,23.10
2022-11-29T00:08:36.220Z,21.73
2022-11-29T00:11:07.044Z,21.77
2022-11-29T00:13:35.362Z,21.83
2022-11-29T00:16:05.022Z,25.73
2022-11-29T00:18:33.390Z,22.80
2022-11-29T00:21:06.664Z,22.05
2022-11-29T00:23:35.173Z,20.65
2022-11-29T00:26:08.395Z,21.10
2022-11-29T00:28:37.714Z,21.75
2022-11-29T00:31:15.440Z,22.13
2022-11-29T00:33:43.721Z,21.33
2022-11-29T00:36:11.970Z,24.08
2022-11-29T00:38:40.522Z,22.15
2022-11-29T00:41:10.629Z,22.00
2022-11-29T00:43:39.003Z,22.33
2022-11-29T00:46:08.991Z,22.40
2022-11-29T00:48:37.706Z,22.25
2022-11-29T00:51:06.978Z,21.27
2022-11-29T00:53:36.187Z,20.38
2022-11-29T00:56:04.958Z,22.88
2022-11-29T00:58:34.541Z,23.15
2022-11-29T01:01:02.824Z,20.85
2022-11-29T01:03:31.277Z,22.38
2022-11-29T01:06:02.851Z,23.23
2022-11-29T01:08:31.113Z,22.17
2022-11-29T01:11:06.456Z,22.08
2022-11-29T01:13:36.405Z,22.05
2022-11-29T01:16:05.479Z,24.35
2022-11-29T01:18:34.207Z,20.20
2022-11-29T01:21:04.755Z,23.15
2022-11-29T01:23:33.075Z,19.45
2022-11-29T01:26:02.792Z,24.05
2022-11-29T01:28:31.540Z,19.63
2022-11-29T01:31:01.195Z,20.17
2022-11-29T01:33:29.478Z,21.00
2022-11-29T01:35:57.694Z,18.95
2022-11-29T01:38:26.027Z,19.02
2022-11-29T01:40:59.319Z,21.58
2022-11-29T01:43:27.763Z,21.45
2022-11-29T01:45:56.143Z,20.98
2022-11-29T01:48:28.703Z,21.05
2022-11-29T01:51:00.206Z,22.30
2022-11-29T01:53:29.215Z,20.58
2022-11-29T01:56:02.173Z,22.33
2022-11-29T01:58:31.135Z,21.00
2022-11-29T02:00:59.577Z,22.13
2022-11-29T02:03:29.235Z,21.60
2022-11-29T02:05:57.523Z,21.95
2022-11-29T02:08:28.900Z,23.52
2022-11-29T02:11:13.934Z,19.42
2022-11-29T02:13:50.400Z,22.13
2022-11-29T02:16:23.783Z,24.42
2022-11-29T02:19:01.339Z,21.25
2022-11-29T02:21:37.641Z,21.90
2022-11-29T02:24:20.913Z,20.70
2022-11-29T02:27:07.282Z,20.70
2022-11-29T02:30:09.018Z,24.20
2022-11-29T02:33:18.855Z,20.02
2022-11-29T02:36:08.740Z,20.38
2022-11-29T02:38:57.242Z,23.85
2022-11-29T02:41:35.695Z,18.50
2022-11-29T02:44:30.216Z,21.20
2022-11-29T02:47:09.171Z,18.95
2022-11-29T02:49:55.249Z,24.20
2022-11-29T02:52:31.239Z,19.45
2022-11-29T02:55:06.263Z,20.77
2022-11-29T02:57:38.629Z,22.27
2022-11-29T03:00:10.560Z,19.75
2022-11-29T03:02:44.707Z,22.25
2022-11-29T03:05:20.405Z,21.20
2022-11-29T03:07:56.277Z,22.30
2022-11-29T03:10:32.201Z,20.30
2022-11-29T03:13:01.103Z,23.17
2022-11-29T03:15:31.399Z,21.20
2022-11-29T03:18:09.006Z,24.25
2022-11-29T03:20:50.564Z,24.83
2022-11-29T03:23:24.802Z,24.05
2022-11-29T03:25:57.057Z,25.08
2022-11-29T03:28:30.410Z,26.35
2022-11-29T03:31:03.269Z,26.35
2022-11-29T03:33:36.862Z,25.25
2022-11-29T03:36:11.617Z,22.70
2022-11-29T03:38:42.453Z,20.90
2022-11-29T03:41:19.917Z,25.30
2022-11-29T03:43:52.727Z,23.27
2022-11-29T03:46:26.377Z,20.17
2022-11-29T03:48:57.941Z,20.20
2022-11-29T03:51:38.943Z,21.02
2022-11-29T03:54:11.613Z,19.75
2022-11-29T03:56:41.450Z,19.88
2022-11-29T03:59:20.015Z,18.40
2022-11-29T04:02:27.087Z,19.40
2022-11-29T04:05:45.840Z,16.92
2022-11-29T04:08:49.611Z,19.58
2022-11-29T04:11:54.955Z,20.35
2022-11-29T04:14:35.927Z,20.88
2022-11-29T04:17:31.633Z,16.50
2022-11-29T04:20:39.702Z,18.58
2022-11-29T04:23:42.822Z,15.98
2022-11-29T04:29:20.028Z,16.75
2022-11-29T04:32:04.791Z,17.40
2022-11-29T04:34:47.942Z,17.13
2022-11-29T04:37:27.927Z,18.63
2022-11-29T04:40:08.785Z,18.02
2022-11-29T04:43:00.439Z,15.38
2022-11-29T04:45:42.297Z,14.85
2022-11-29T04:48:33.633Z,16.58
2022-11-29T04:51:10.205Z,18.45
2022-11-29T04:53:50.636Z,14.77
2022-11-29T04:56:24.943Z,17.45
2022-11-29T04:58:56.827Z,18.08
2022-11-29T05:01:31.207Z,18.17
2022-11-29T05:04:03.996Z,16.17
2022-11-29T05:06:36.697Z,16.90
2022-11-29T05:09:11.979Z,18.60
2022-11-29T05:11:51.574Z,17.55
2022-11-29T05:14:31.236Z,15.75
2022-11-29T05:17:10.764Z,16.95
2022-11-29T05:19:52.965Z,16.20
2022-11-29T05:22:28.924Z,16.23
2022-11-29T05:25:03.891Z,15.75
2022-11-29T05:27:41.919Z,17.85
2022-11-29T05:30:14.548Z,22.60
2022-11-29T05:32:51.839Z,25.08
2022-11-29T05:35:52.658Z,20.63
2022-11-29T05:41:16.038Z,17.92
2022-11-29T05:43:55.081Z,19.65
2022-11-29T05:46:30.590Z,19.88
2022-11-29T05:49:04.692Z,21.98
2022-11-29T05:51:41.718Z,18.35
2022-11-29T05:54:18.017Z,16.92
2022-11-29T05:56:54.561Z,17.70
2022-11-29T05:59:24.700Z,17.88
2022-11-29T06:01:59.259Z,16.77
2022-11-29T06:04:30.500Z,18.75
2022-11-29T06:07:04.426Z,18.77
2022-11-29T06:09:36.232Z,19.05
2022-11-29T06:12:06.849Z,16.77
2022-11-29T06:17:38.874Z,17.67
2022-11-29T06:20:24.696Z,18.08
2022-11-29T06:23:16.859Z,18.13
2022-11-29T06:25:59.479Z,18.27
2022-11-29T06:28:42.839Z,16.83
2022-11-29T06:31:16.364Z,16.23
2022-11-29T06:33:51.719Z,18.02
2022-11-29T06:36:22.617Z,17.52
2022-11-29T06:38:51.343Z,18.05
2022-11-29T06:41:21.937Z,17.35
2022-11-29T06:46:26.698Z,18.63
2022-11-29T06:49:02.340Z,17.55
2022-11-29T06:51:34.705Z,19.63
2022-11-29T06:54:13.816Z,18.00
2022-11-29T06:56:46.094Z,17.98
2022-11-29T06:59:27.602Z,22.88
2022-11-29T07:02:00.762Z,20.90
2022-11-29T07:04:50.670Z,18.75
2022-11-29T07:07:21.773Z,18.17
2022-11-29T07:09:52.787Z,20.42
2022-11-29T07:12:21.705Z,17.83
2022-11-29T07:14:50.638Z,18.58
2022-11-29T07:17:25.420Z,18.20
2022-11-29T07:20:03.591Z,18.25
2022-11-29T07:22:46.162Z,16.50
2022-11-29T07:25:23.011Z,17.02
2022-11-29T07:27:58.558Z,17.02
2022-11-29T07:30:29.426Z,17.88
2022-11-29T07:33:03.129Z,19.15
2022-11-29T07:35:35.631Z,18.38
2022-11-29T07:38:11.022Z,20.02
2022-11-29T07:40:44.649Z,20.40
2022-11-29T07:43:22.464Z,16.70
2022-11-29T07:45:52.121Z,20.50
2022-11-29T07:48:20.387Z,18.23
2022-11-29T07:50:50.281Z,16.63
2022-11-29T07:53:20.060Z,16.58
2022-11-29T07:55:49.198Z,17.87
2022-11-29T07:58:18.391Z,17.30
2022-11-29T08:00:47.353Z,16.63
2022-11-29T08:03:15.719Z,17.60
2022-11-29T08:05:47.161Z,18.85
2022-11-29T08:08:17.106Z,14.60
2022-11-29T08:10:45.929Z,20.50
2022-11-29T08:13:14.559Z,20.27
2022-11-29T08:15:45.555Z,16.65
2022-11-29T08:18:13.946Z,18.52
2022-11-29T08:20:42.478Z,17.33
2022-11-29T08:23:12.709Z,19.20
2022-11-29T08:25:42.672Z,18.30
2022-11-29T08:28:11.012Z,17.38
2022-11-29T08:30:39.628Z,19.00
2022-11-29T08:33:08.136Z,17.83
2022-11-29T08:35:36.854Z,16.95
2022-11-29T08:38:05.196Z,18.48
2022-11-29T08:40:33.466Z,19.55
2022-11-29T08:43:03.126Z,20.15
2022-11-29T08:45:31.507Z,23.60
2022-11-29T08:47:59.759Z,20.98
2022-11-29T08:50:27.949Z,19.73
2022-11-29T08:53:14.046Z,21.40
2022-11-29T08:55:43.076Z,19.08
2022-11-29T08:58:14.834Z,21.17
2022-11-29T09:00:45.629Z,20.10
2022-11-29T09:03:31.752Z,19.10
2022-11-29T09:06:00.049Z,19.30
2022-11-29T09:08:28.248Z,19.90
2022-11-29T09:10:56.531Z,20.17
2022-11-29T09:13:26.097Z,19.92
2022-11-29T09:15:54.312Z,18.92
2022-11-29T09:18:22.779Z,18.02
2022-11-29T09:20:51.087Z,19.95
2022-11-29T09:23:19.281Z,20.38
2022-11-29T09:25:49.498Z,19.00
2022-11-29T09:28:17.829Z,21.95
2022-11-29T09:30:47.517Z,19.50
2022-11-29T09:33:15.778Z,18.43
2022-11-29T09:35:44.160Z,20.17
2022-11-29T09:38:13.253Z,20.15
2022-11-29T09:43:22.966Z,18.60
2022-11-29T09:45:57.950Z,20.00
2022-11-29T09:48:44.600Z,20.92
2022-11-29T09:51:19.310Z,20.67
2022-11-29T09:54:04.072Z,20.67
2022-11-29T09:56:35.672Z,17.98
2022-11-29T09:59:05.745Z,20.42
2022-11-29T10:01:39.015Z,19.90
2022-11-29T10:04:12.193Z,21.17
2022-11-29T10:06:43.230Z,17.92
2022-11-29T10:09:16.701Z,22.02
2022-11-29T10:11:53.992Z,19.23
2022-11-29T10:14:24.534Z,20.42
2022-11-29T10:16:59.065Z,20.13
2022-11-29T10:19:32.648Z,21.27
2022-11-29T10:22:05.140Z,24.63
2022-11-29T10:24:34.295Z,23.00
2022-11-29T10:27:03.222Z,21.70
2022-11-29T10:29:31.517Z,22.92
2022-11-29T10:32:10.069Z,22.90
2022-11-29T10:34:38.885Z,24.50
2022-11-29T10:37:10.675Z,21.73
2022-11-29T10:39:42.432Z,24.35
2022-11-29T10:42:36.183Z,26.15
2022-11-29T10:45:06.200Z,22.50
2022-11-29T10:47:35.945Z,23.77
2022-11-29T10:50:04.220Z,23.73
2022-11-29T10:52:32.484Z,24.02
2022-11-29T10:55:01.279Z,23.30
2022-11-29T10:57:29.701Z,23.05
2022-11-29T11:00:04.521Z,25.50
2022-11-29T11:02:33.096Z,23.75
2022-11-29T11:05:02.959Z,24.92
2022-11-29T11:07:35.160Z,24.92
2022-11-29T11:10:06.439Z,24.55
2022-11-29T11:12:36.925Z,23.45
2022-11-29T11:15:17.111Z,23.92
2022-11-29T11:17:58.344Z,22.80
2022-11-29T11:20:29.799Z,24.83
2022-11-29T11:23:00.076Z,22.25
2022-11-29T11:25:30.606Z,22.92
2022-11-29T11:27:59.698Z,22.65
2022-11-29T11:30:29.280Z,21.15
2022-11-29T11:33:15.743Z,22.10
2022-11-29T11:35:45.415Z,22.05
2022-11-29T11:38:17.502Z,23.53
2022-11-29T11:40:46.588Z,21.30
2022-11-29T11:43:20.534Z,20.80
2022-11-29T11:45:53.362Z,22.52
2022-11-29T11:48:21.900Z,19.83
2022-11-29T11:50:54.330Z,21.25
2022-11-29T11:53:24.267Z,19.05
2022-11-29T11:55:59.175Z,18.60
2022-11-29T11:58:28.847Z,18.42
2022-11-29T12:01:04.373Z,17.60
2022-11-29T12:03:38.893Z,17.92
2022-11-29T12:06:27.470Z,20.80
2022-11-29T12:08:59.011Z,15.13
2022-11-29T12:11:28.104Z,15.32
2022-11-29T12:13:58.121Z,15.80
2022-11-29T12:16:30.159Z,19.05
2022-11-29T12:19:01.350Z,18.40
2022-11-29T12:21:36.015Z,19.35
2022-11-29T12:24:13.984Z,21.08
2022-11-29T12:26:57.066Z,20.33
2022-11-29T12:29:28.860Z,21.98
2022-11-29T12:34:42.388Z,19.88
2022-11-29T12:37:17.433Z,18.42
2022-11-29T12:39:58.926Z,19.20
2022-11-29T12:42:47.210Z,19.10
2022-11-29T12:45:32.206Z,19.85
2022-11-29T12:48:08.913Z,16.77
2022-11-29T12:50:43.479Z,20.13
2022-11-29T12:53:27.073Z,18.15
2022-11-29T12:56:07.154Z,18.50
2022-11-29T12:58:46.105Z,18.45
2022-11-29T13:01:21.351Z,20.20
2022-11-29T13:03:57.237Z,19.67
2022-11-29T13:06:30.644Z,22.70
2022-11-29T13:09:12.299Z,22.20
2022-11-29T13:11:43.171Z,23.33
2022-11-29T13:14:41.680Z,22.38
2022-11-29T13:17:05.042Z,23.98
2022-11-29T13:19:37.486Z,21.77
2022-11-29T13:22:12.032Z,22.42
2022-11-29T13:24:44.174Z,27.83
2022-11-29T13:27:18.188Z,24.70
2022-11-29T13:29:47.850Z,35.38
2022-11-29T13:32:30.153Z,30.45
2022-11-29T13:35:01.507Z,26.60
2022-11-29T13:37:35.002Z,27.63
2022-11-29T13:40:19.377Z,27.63
2022-11-29T13:42:51.626Z,28.52
2022-11-29T13:45:24.295Z,29.88
2022-11-29T13:47:55.029Z,31.45
2022-11-29T13:50:40.593Z,26.00
2022-11-29T13:53:15.623Z,28.88
2022-11-29T13:55:50.054Z,27.02
2022-11-29T13:58:34.408Z,25.75
2022-11-29T14:01:04.033Z,30.20
2022-11-29T14:03:36.145Z,33.50
2022-11-29T14:06:18.280Z,32.25
2022-11-29T14:09:19.983Z,34.50
2022-11-29T14:11:52.507Z,36.72
2022-11-29T14:14:26.134Z,32.33
2022-11-29T14:16:56.938Z,35.80
2022-11-29T14:19:33.160Z,31.83
2022-11-29T14:22:22.225Z,32.05
2022-11-29T14:24:58.773Z,30.52
2022-11-29T14:27:57.543Z,32.22
2022-11-29T14:30:52.444Z,26.98
2022-11-29T14:33:39.094Z,34.75
2022-11-29T14:36:40.021Z,32.53
2022-11-29T14:39:25.318Z,33.40
2022-11-29T14:42:01.284Z,33.40
2022-11-29T14:44:32.480Z,35.47
2022-11-29T14:47:03.383Z,36.22
2022-11-29T14:49:33.088Z,38.50
2022-11-29T14:52:21.494Z,39.63
2022-11-29T14:55:01.711Z,34.65
2022-11-29T14:58:15.602Z,33.03
2022-11-29T15:01:08.051Z,32.60
2022-11-29T15:03:48.150Z,33.55
2022-11-29T15:06:24.297Z,32.33
2022-11-29T15:08:57.729Z,31.65
2022-11-29T15:11:36.565Z,31.70
2022-11-29T15:14:07.872Z,37.03
2022-11-29T15:17:01.510Z,32.97
2022-11-29T15:20:11.640Z,37.40
2022-11-29T15:22:47.914Z,35.85
2022-11-29T15:25:18.695Z,38.90
2022-11-29T15:27:54.002Z,40.72
2022-11-29T15:30:29.942Z,37.03
2022-11-29T15:33:00.681Z,37.58
2022-11-29T15:35:29.240Z,40.22
2022-11-29T15:37:58.127Z,38.55
2022-11-29T15:40:33.030Z,38.55
2022-11-29T15:43:05.110Z,39.42
2022-11-29T15:45:34.906Z,40.65
2022-11-29T15:48:17.294Z,37.83
2022-11-29T15:50:50.324Z,37.03
2022-11-29T15:53:22.831Z,39.58
2022-11-29T15:55:52.285Z,37.95
2022-11-29T15:58:20.975Z,35.33
2022-11-29T16:00:51.072Z,39.67
2022-11-29T16:03:25.229Z,37.45
2022-11-29T16:05:58.790Z,37.28
2022-11-29T16:08:27.723Z,36.92
2022-11-29T16:10:56.107Z,37.67
2022-11-29T16:13:35.962Z,34.67
2022-11-29T16:16:13.263Z,33.00
2022-11-29T16:18:44.333Z,32.85
2022-11-29T16:21:26.329Z,33.58
2022-11-29T16:23:54.900Z,33.85
2022-11-29T16:26:25.117Z,31.42
2022-11-29T16:28:56.417Z,34.17
2022-11-29T16:31:31.132Z,32.75
2022-11-29T16:34:07.661Z,35.22
2022-11-29T16:36:36.430Z,31.50
2022-11-29T16:39:07.301Z,32.50
2022-11-29T16:41:36.761Z,33.15
2022-11-29T16:44:06.196Z,33.47
2022-11-29T16:46:37.534Z,35.25
2022-11-29T16:49:37.295Z,30.80
2022-11-29T16:52:24.038Z,30.65
2022-11-29T16:54:52.448Z,30.48
2022-11-29T16:57:20.771Z,30.58
2022-11-29T16:59:49.331Z,31.33
2022-11-29T17:02:17.891Z,33.10
2022-11-29T17:04:47.893Z,31.77
2022-11-29T17:07:19.202Z,32.22
2022-11-29T17:09:47.653Z,29.50
2022-11-29T17:12:16.542Z,26.48
2022-11-29T17:14:45.269Z,31.30
2022-11-29T17:17:14.942Z,32.15
2022-11-29T17:19:43.152Z,33.67
2022-11-29T17:22:13.341Z,30.70
2022-11-29T17:24:46.409Z,34.35
2022-11-29T17:27:16.204Z,31.58
2022-11-29T17:29:44.446Z,32.10
2022-11-29T17:32:12.724Z,29.17
2022-11-29T17:34:41.062Z,30.23
2022-11-29T17:37:09.266Z,29.98
2022-11-29T17:39:38.911Z,32.67
2022-11-29T17:42:07.140Z,29.77
2022-11-29T17:44:35.692Z,33.33
2022-11-29T17:47:03.930Z,35.20
2022-11-29T17:49:32.133Z,36.55
2022-11-29T17:52:00.353Z,37.42
2022-11-29T17:54:29.430Z,37.03
2022-11-29T17:56:58.994Z,34.35
2022-11-29T17:59:27.263Z,36.00
2022-11-29T18:01:55.615Z,34.38
2022-11-29T18:04:23.924Z,32.10
2022-11-29T18:06:52.346Z,34.25
2022-11-29T18:09:20.675Z,36.05
2022-11-29T18:11:50.611Z,35.05
2022-11-29T18:14:22.768Z,31.95
2022-11-29T18:16:51.461Z,33.70
2022-11-29T18:19:21.021Z,37.90
2022-11-29T18:21:49.999Z,34.65
2022-11-29T18:24:18.702Z,34.83
2022-11-29T18:26:47.143Z,34.78
2022-11-29T18:29:15.629Z,34.28
2022-11-29T18:31:46.006Z,36.70
2022-11-29T18:34:15.272Z,35.60
2022-11-29T18:36:45.109Z,34.60
2022-11-29T18:39:15.058Z,33.42
2022-11-29T18:41:44.523Z,39.25
2022-11-29T18:44:14.764Z,33.28
2022-11-29T18:46:46.222Z,35.38
2022-11-29T18:49:15.800Z,35.45
2022-11-29T18:51:45.773Z,36.00
2022-11-29T18:54:14.832Z,35.05
2022-11-29T18:56:43.736Z,34.08
2022-11-29T18:59:14.609Z,32.42
2022-11-29T19:01:43.554Z,36.70
2022-11-29T19:04:14.642Z,33.17
2022-11-29T19:06:43.905Z,32.85
2022-11-29T19:09:14.678Z,34.42
2022-11-29T19:11:43.089Z,32.75
2022-11-29T19:14:12.812Z,37.13
2022-11-29T19:16:43.315Z,39.05
2022-11-29T19:19:13.005Z,34.45
2022-11-29T19:21:41.671Z,34.10
2022-11-29T19:24:15.011Z,38.95
2022-11-29T19:26:44.741Z,35.85
2022-11-29T19:29:13.817Z,36.80
2022-11-29T19:31:42.628Z,35.92
2022-11-29T19:34:12.731Z,37.70
2022-11-29T19:36:43.302Z,38.42
2022-11-29T19:39:13.551Z,38.15
2022-11-29T19:41:42.840Z,34.00
2022-11-29T19:44:11.767Z,33.30
2022-11-29T19:46:41.903Z,34.65
2022-11-29T19:49:11.081Z,35.58
2022-11-29T19:51:40.645Z,39.05
2022-11-29T19:54:10.381Z,36.70
2022-11-29T19:56:39.279Z,35.73
2022-11-29T19:59:08.604Z,35.15
2022-11-29T20:01:41.289Z,37.63
2022-11-29T20:04:11.448Z,34.97
2022-11-29T20:06:41.736Z,42.25
2022-11-29T20:09:10.627Z,35.95
2022-11-29T20:11:38.902Z,38.58
2022-11-29T20:14:08.148Z,34.92
2022-11-29T20:16:38.066Z,42.35
2022-11-29T20:19:09.967Z,38.55
2022-11-29T20:21:43.968Z,40.33
2022-11-29T20:24:14.213Z,40.78
2022-11-29T20:26:43.951Z,39.13
2022-11-29T20:29:13.277Z,38.00
2022-11-29T20:31:49.031Z,35.45
2022-11-29T20:34:18.885Z,38.45
2022-11-29T20:37:06.727Z,38.90
2022-11-29T20:39:40.069Z,40.88
2022-11-29T20:42:34.416Z,39.78
2022-11-29T20:45:04.938Z,42.90
2022-11-29T20:47:35.594Z,43.85
2022-11-29T20:52:39.271Z,45.65
2022-11-29T20:55:08.209Z,43.45
2022-11-29T20:57:38.255Z,40.15
2022-11-29T21:00:08.177Z,50.10
2022-11-29T21:02:36.439Z,44.92
2022-11-29T21:05:05.469Z,47.85
2022-11-29T21:07:35.181Z,46.50
2022-11-29T21:10:03.531Z,50.83
2022-11-29T21:12:32.681Z,47.53
2022-11-29T21:15:01.416Z,51.47
2022-11-29T21:17:33.679Z,49.58
2022-11-29T21:20:03.152Z,49.83
2022-11-29T21:22:39.883Z,50.95
2022-11-29T21:25:15.302Z,54.15
2022-11-29T21:27:44.254Z,55.13
2022-11-29T21:30:18.679Z,44.08
2022-11-29T21:32:47.983Z,45.30
2022-11-29T21:35:16.970Z,48.72
2022-11-29T21:37:46.865Z,43.40
2022-11-29T21:40:16.968Z,43.78
2022-11-29T21:42:45.299Z,45.10
2022-11-29T21:45:15.802Z,44.47
2022-11-29T21:47:44.679Z,42.90
2022-11-29T21:50:13.663Z,45.20
2022-11-29T21:52:41.973Z,44.72
2022-11-29T21:55:13.721Z,44.35
2022-11-29T21:57:41.948Z,50.53
2022-11-29T22:00:10.912Z,43.30
2022-11-29T22:02:39.366Z,46.78
2022-11-29T22:05:09.602Z,45.90
2022-11-29T22:07:37.925Z,42.00
2022-11-29T22:10:13.098Z,41.17
2022-11-29T22:12:51.987Z,43.65
2022-11-29T22:15:24.802Z,45.72
2022-11-29T22:17:53.445Z,46.63
2022-11-29T22:20:21.705Z,46.53
2022-11-29T22:22:50.138Z,42.90
2022-11-29T22:25:19.610Z,45.63
2022-11-29T22:27:51.571Z,49.63
2022-11-29T22:30:20.032Z,42.28
2022-11-29T22:32:48.287Z,45.25
2022-11-29T22:35:16.799Z,41.00
2022-11-29T22:37:45.144Z,42.15
2022-11-29T22:40:13.912Z,47.83
2022-11-29T22:42:43.276Z,41.42
2022-11-29T22:45:13.103Z,44.35
2022-11-29T22:47:41.346Z,46.50
2022-11-29T22:50:11.118Z,45.22
2022-11-29T22:52:39.371Z,42.07
2022-11-29T22:55:08.138Z,44.97
2022-11-29T22:57:36.534Z,41.25
2022-11-29T23:00:06.170Z,41.15
2022-11-29T23:02:35.809Z,42.45
2022-11-29T23:05:04.116Z,39.03
2022-11-29T23:07:32.431Z,46.42
2022-11-29T23:10:00.697Z,42.50
2022-11-29T23:12:29.159Z,46.45
2022-11-29T23:14:57.728Z,43.78
2022-11-29T23:17:26.142Z,40.50
2022-11-29T23:19:55.712Z,43.13
2022-11-29T23:22:23.911Z,43.25
2022-11-29T23:24:52.100Z,48.20
2022-11-29T23:27:20.430Z,41.95
2022-11-29T23:29:48.736Z,42.80
2022-11-29T23:32:16.958Z,44.80
2022-11-29T23:34:45.618Z,42.83
2022-11-29T23:37:15.303Z,46.85
2022-11-29T23:39:43.519Z,44.63
2022-11-29T23:42:11.766Z,44.22
2022-11-29T23:44:39.975Z,42.42
2022-11-29T23:47:08.190Z,49.20
2022-11-29T23:49:39.866Z,45.42
2022-11-29T23:52:08.190Z,45.85
2022-11-29T23:54:37.765Z,44.40
2022-11-29T23:57:06.076Z,45.22
2022-11-29T23:59:34.350Z,45.28
